sensor_id;sensor_type;location;lat;lon;timestamp;P1;durP1;ratioP1;P2;durP2;ratioP2
48993;SDS011;34804;49.214;12.276;2023-03-19T00:00:42;10.35;;;6.05;;
48993;SDS011;34804;49.214;12.276;2023-03-19T00:03:08;17.80;;;5.85;;
48993;SDS011;34804;49.214;12.276;2023-03-19T00:05:35;10.90;;;4.97;;
48993;SDS011;34804;49.214;12.276;2023-03-19T00:08:02;9.82;;;4.82;;
48993;SDS011;34804;49.214;12.276;2023-03-19T00:10:29;10.23;;;5.05;;
48993;SDS011;34804;49.214;12.276;2023-03-19T00:12:56;9.55;;;4.95;;
48993;SDS011;34804;49.214;12.276;2023-03-19T00:15:23;11.27;;;5.18;;
48993;SDS011;34804;49.214;12.276;2023-03-19T00:17:50;14.70;;;5.45;;
48993;SDS011;34804;49.214;12.276;2023-03-19T00:20:17;17.85;;;6.28;;
48993;SDS011;34804;49.214;12.276;2023-03-19T00:22:45;12.20;;;6.15;;
48993;SDS011;34804;49.214;12.276;2023-03-19T00:25:12;11.93;;;5.57;;
48993;SDS011;34804;49.214;12.276;2023-03-19T00:27:39;11.85;;;5.55;;
48993;SDS011;34804;49.214;12.276;2023-03-19T00:30:06;14.20;;;5.95;;
48993;SDS011;34804;49.214;12.276;2023-03-19T00:32:33;11.18;;;5.72;;
48993;SDS011;34804;49.214;12.276;2023-03-19T00:35:02;12.18;;;5.47;;
48993;SDS011;34804;49.214;12.276;2023-03-19T00:37:31;11.73;;;5.47;;
48993;SDS011;34804;49.214;12.276;2023-03-19T00:39:58;11.05;;;5.75;;
48993;SDS011;34804;49.214;12.276;2023-03-19T00:42:25;11.57;;;5.47;;
48993;SDS011;34804;49.214;12.276;2023-03-19T00:44:52;12.50;;;5.78;;
48993;SDS011;34804;49.214;12.276;2023-03-19T00:47:19;11.40;;;5.88;;
48993;SDS011;34804;49.214;12.276;2023-03-19T00:49:46;9.38;;;5.88;;
48993;SDS011;34804;49.214;12.276;2023-03-19T00:52:13;11.50;;;5.97;;
48993;SDS011;34804;49.214;12.276;2023-03-19T00:54:40;11.00;;;6.55;;
48993;SDS011;34804;49.214;12.276;2023-03-19T00:57:07;13.20;;;6.22;;
48993;SDS011;34804;49.214;12.276;2023-03-19T00:59:34;10.95;;;6.07;;
48993;SDS011;34804;49.214;12.276;2023-03-19T01:02:01;13.80;;;6.13;;
48993;SDS011;34804;49.214;12.276;2023-03-19T01:04:28;12.02;;;6.13;;
48993;SDS011;34804;49.214;12.276;2023-03-19T01:06:56;11.32;;;5.53;;
48993;SDS011;34804;49.214;12.276;2023-03-19T01:09:23;12.20;;;6.30;;
48993;SDS011;34804;49.214;12.276;2023-03-19T01:11:50;10.48;;;5.38;;
48993;SDS011;34804;49.214;12.276;2023-03-19T01:14:17;10.15;;;5.13;;
48993;SDS011;34804;49.214;12.276;2023-03-19T01:16:44;8.05;;;5.03;;
48993;SDS011;34804;49.214;12.276;2023-03-19T01:19:11;11.20;;;5.97;;
48993;SDS011;34804;49.214;12.276;2023-03-19T01:21:39;12.95;;;6.07;;
48993;SDS011;34804;49.214;12.276;2023-03-19T01:24:08;14.38;;;6.68;;
48993;SDS011;34804;49.214;12.276;2023-03-19T01:26:35;9.65;;;5.30;;
48993;SDS011;34804;49.214;12.276;2023-03-19T01:29:02;9.15;;;4.95;;
48993;SDS011;34804;49.214;12.276;2023-03-19T01:31:29;9.13;;;4.63;;
48993;SDS011;34804;49.214;12.276;2023-03-19T01:33:56;8.57;;;4.60;;
48993;SDS011;34804;49.214;12.276;2023-03-19T01:36:23;9.07;;;4.63;;
48993;SDS011;34804;49.214;12.276;2023-03-19T01:38:50;9.57;;;5.50;;
48993;SDS011;34804;49.214;12.276;2023-03-19T01:41:16;9.88;;;5.25;;
48993;SDS011;34804;49.214;12.276;2023-03-19T01:43:43;9.82;;;5.63;;
48993;SDS011;34804;49.214;12.276;2023-03-19T01:46:23;11.50;;;5.45;;
48993;SDS011;34804;49.214;12.276;2023-03-19T01:51:27;9.85;;;5.65;;
48993;SDS011;34804;49.214;12.276;2023-03-19T01:53:59;11.27;;;6.00;;
48993;SDS011;34804;49.214;12.276;2023-03-19T01:56:30;14.20;;;6.00;;
48993;SDS011;34804;49.214;12.276;2023-03-19T01:59:00;9.45;;;4.85;;
48993;SDS011;34804;49.214;12.276;2023-03-19T02:01:32;10.60;;;5.57;;
48993;SDS011;34804;49.214;12.276;2023-03-19T02:04:03;13.45;;;6.00;;
48993;SDS011;34804;49.214;12.276;2023-03-19T02:06:31;15.35;;;6.90;;
48993;SDS011;34804;49.214;12.276;2023-03-19T02:09:00;12.50;;;5.60;;
48993;SDS011;34804;49.214;12.276;2023-03-19T02:11:27;12.50;;;5.93;;
48993;SDS011;34804;49.214;12.276;2023-03-19T02:13:54;9.85;;;5.70;;
48993;SDS011;34804;49.214;12.276;2023-03-19T02:16:21;10.88;;;4.93;;
48993;SDS011;34804;49.214;12.276;2023-03-19T02:18:47;13.02;;;6.43;;
48993;SDS011;34804;49.214;12.276;2023-03-19T02:21:15;14.20;;;6.63;;
48993;SDS011;34804;49.214;12.276;2023-03-19T02:26:39;13.32;;;6.32;;
48993;SDS011;34804;49.214;12.276;2023-03-19T02:29:08;11.52;;;6.78;;
48993;SDS011;34804;49.214;12.276;2023-03-19T02:31:35;13.02;;;7.18;;
48993;SDS011;34804;49.214;12.276;2023-03-19T02:34:04;10.48;;;6.65;;
48993;SDS011;34804;49.214;12.276;2023-03-19T02:37:03;11.60;;;6.40;;
48993;SDS011;34804;49.214;12.276;2023-03-19T02:42:34;11.73;;;7.15;;
48993;SDS011;34804;49.214;12.276;2023-03-19T02:45:01;12.20;;;6.82;;
48993;SDS011;34804;49.214;12.276;2023-03-19T02:47:28;10.23;;;6.05;;
48993;SDS011;34804;49.214;12.276;2023-03-19T02:49:56;11.57;;;6.47;;
48993;SDS011;34804;49.214;12.276;2023-03-19T02:52:23;13.18;;;6.10;;
48993;SDS011;34804;49.214;12.276;2023-03-19T02:54:50;10.00;;;6.00;;
48993;SDS011;34804;49.214;12.276;2023-03-19T02:57:17;13.27;;;6.88;;
48993;SDS011;34804;49.214;12.276;2023-03-19T02:59:43;9.93;;;5.95;;
48993;SDS011;34804;49.214;12.276;2023-03-19T03:02:10;13.73;;;6.20;;
48993;SDS011;34804;49.214;12.276;2023-03-19T03:04:37;13.07;;;7.90;;
48993;SDS011;34804;49.214;12.276;2023-03-19T03:07:04;13.50;;;8.63;;
48993;SDS011;34804;49.214;12.276;2023-03-19T03:09:33;12.70;;;7.35;;
48993;SDS011;34804;49.214;12.276;2023-03-19T03:12:00;12.32;;;6.97;;
48993;SDS011;34804;49.214;12.276;2023-03-19T03:14:27;11.23;;;6.28;;
48993;SDS011;34804;49.214;12.276;2023-03-19T03:16:54;10.25;;;6.00;;
48993;SDS011;34804;49.214;12.276;2023-03-19T03:19:22;10.73;;;5.65;;
48993;SDS011;34804;49.214;12.276;2023-03-19T03:21:49;13.20;;;6.00;;
48993;SDS011;34804;49.214;12.276;2023-03-19T03:24:17;11.25;;;5.15;;
48993;SDS011;34804;49.214;12.276;2023-03-19T03:26:44;11.55;;;6.05;;
48993;SDS011;34804;49.214;12.276;2023-03-19T03:29:11;9.25;;;5.78;;
48993;SDS011;34804;49.214;12.276;2023-03-19T03:31:38;13.20;;;8.02;;
48993;SDS011;34804;49.214;12.276;2023-03-19T03:34:05;12.23;;;6.72;;
48993;SDS011;34804;49.214;12.276;2023-03-19T03:36:32;13.40;;;7.65;;
48993;SDS011;34804;49.214;12.276;2023-03-19T03:38:59;13.32;;;8.10;;
48993;SDS011;34804;49.214;12.276;2023-03-19T03:41:26;14.38;;;8.15;;
48993;SDS011;34804;49.214;12.276;2023-03-19T03:43:53;14.68;;;7.95;;
48993;SDS011;34804;49.214;12.276;2023-03-19T03:46:20;15.23;;;8.98;;
48993;SDS011;34804;49.214;12.276;2023-03-19T03:48:47;16.65;;;8.68;;
48993;SDS011;34804;49.214;12.276;2023-03-19T03:51:14;14.07;;;8.13;;
48993;SDS011;34804;49.214;12.276;2023-03-19T03:53:41;14.02;;;8.82;;
48993;SDS011;34804;49.214;12.276;2023-03-19T03:56:08;14.25;;;8.95;;
48993;SDS011;34804;49.214;12.276;2023-03-19T03:58:35;16.35;;;8.88;;
48993;SDS011;34804;49.214;12.276;2023-03-19T04:01:03;14.48;;;8.20;;
48993;SDS011;34804;49.214;12.276;2023-03-19T04:03:30;15.50;;;8.88;;
48993;SDS011;34804;49.214;12.276;2023-03-19T04:05:57;15.30;;;8.98;;
48993;SDS011;34804;49.214;12.276;2023-03-19T04:08:23;13.60;;;8.63;;
48993;SDS011;34804;49.214;12.276;2023-03-19T04:10:50;12.85;;;7.70;;
48993;SDS011;34804;49.214;12.276;2023-03-19T04:13:17;15.18;;;8.30;;
48993;SDS011;34804;49.214;12.276;2023-03-19T04:15:44;12.27;;;7.47;;
48993;SDS011;34804;49.214;12.276;2023-03-19T04:18:11;14.57;;;7.68;;
48993;SDS011;34804;49.214;12.276;2023-03-19T04:20:38;12.63;;;7.75;;
48993;SDS011;34804;49.214;12.276;2023-03-19T04:23:06;14.60;;;7.72;;
48993;SDS011;34804;49.214;12.276;2023-03-19T04:25:33;13.73;;;8.27;;
48993;SDS011;34804;49.214;12.276;2023-03-19T04:28:00;13.95;;;7.82;;
48993;SDS011;34804;49.214;12.276;2023-03-19T04:30:27;14.32;;;8.57;;
48993;SDS011;34804;49.214;12.276;2023-03-19T04:32:54;15.15;;;8.23;;
48993;SDS011;34804;49.214;12.276;2023-03-19T04:35:21;11.25;;;7.22;;
48993;SDS011;34804;49.214;12.276;2023-03-19T04:37:48;13.48;;;7.25;;
48993;SDS011;34804;49.214;12.276;2023-03-19T04:40:15;14.10;;;7.10;;
48993;SDS011;34804;49.214;12.276;2023-03-19T04:42:43;14.40;;;8.27;;
48993;SDS011;34804;49.214;12.276;2023-03-19T04:45:10;16.00;;;8.32;;
48993;SDS011;34804;49.214;12.276;2023-03-19T04:47:38;14.90;;;9.73;;
48993;SDS011;34804;49.214;12.276;2023-03-19T04:50:05;15.43;;;8.70;;
48993;SDS011;34804;49.214;12.276;2023-03-19T04:52:33;16.50;;;9.13;;
48993;SDS011;34804;49.214;12.276;2023-03-19T04:55:00;14.32;;;8.70;;
48993;SDS011;34804;49.214;12.276;2023-03-19T04:57:27;15.18;;;8.63;;
48993;SDS011;34804;49.214;12.276;2023-03-19T04:59:54;13.77;;;7.28;;
48993;SDS011;34804;49.214;12.276;2023-03-19T05:02:21;16.85;;;7.88;;
48993;SDS011;34804;49.214;12.276;2023-03-19T05:04:48;15.50;;;8.20;;
48993;SDS011;34804;49.214;12.276;2023-03-19T05:07:15;14.75;;;7.88;;
48993;SDS011;34804;49.214;12.276;2023-03-19T05:09:42;16.52;;;8.80;;
48993;SDS011;34804;49.214;12.276;2023-03-19T05:12:11;18.35;;;9.20;;
48993;SDS011;34804;49.214;12.276;2023-03-19T05:14:38;17.75;;;9.68;;
48993;SDS011;34804;49.214;12.276;2023-03-19T05:17:05;19.15;;;10.15;;
48993;SDS011;34804;49.214;12.276;2023-03-19T05:19:32;20.38;;;11.52;;
48993;SDS011;34804;49.214;12.276;2023-03-19T05:21:59;16.45;;;10.48;;
48993;SDS011;34804;49.214;12.276;2023-03-19T05:24:26;16.60;;;10.35;;
48993;SDS011;34804;49.214;12.276;2023-03-19T05:26:53;19.40;;;11.07;;
48993;SDS011;34804;49.214;12.276;2023-03-19T05:29:20;16.48;;;9.50;;
48993;SDS011;34804;49.214;12.276;2023-03-19T05:31:47;15.55;;;9.50;;
48993;SDS011;34804;49.214;12.276;2023-03-19T05:34:14;16.95;;;10.18;;
48993;SDS011;34804;49.214;12.276;2023-03-19T05:36:41;18.92;;;10.05;;
48993;SDS011;34804;49.214;12.276;2023-03-19T05:39:07;19.35;;;9.63;;
48993;SDS011;34804;49.214;12.276;2023-03-19T05:41:34;16.05;;;9.80;;
48993;SDS011;34804;49.214;12.276;2023-03-19T05:44:01;17.55;;;9.98;;
48993;SDS011;34804;49.214;12.276;2023-03-19T05:46:29;17.20;;;10.02;;
48993;SDS011;34804;49.214;12.276;2023-03-19T05:48:56;18.25;;;10.38;;
48993;SDS011;34804;49.214;12.276;2023-03-19T05:51:23;17.70;;;9.73;;
48993;SDS011;34804;49.214;12.276;2023-03-19T05:53:50;18.60;;;10.77;;
48993;SDS011;34804;49.214;12.276;2023-03-19T05:56:16;17.30;;;9.98;;
48993;SDS011;34804;49.214;12.276;2023-03-19T05:58:43;18.95;;;9.75;;
48993;SDS011;34804;49.214;12.276;2023-03-19T06:01:10;19.77;;;10.38;;
48993;SDS011;34804;49.214;12.276;2023-03-19T06:03:37;15.05;;;9.45;;
48993;SDS011;34804;49.214;12.276;2023-03-19T06:06:04;15.20;;;9.68;;
48993;SDS011;34804;49.214;12.276;2023-03-19T06:08:31;19.33;;;9.48;;
48993;SDS011;34804;49.214;12.276;2023-03-19T06:10:58;19.00;;;9.68;;
48993;SDS011;34804;49.214;12.276;2023-03-19T06:13:25;17.17;;;9.18;;
48993;SDS011;34804;49.214;12.276;2023-03-19T06:15:52;19.17;;;11.00;;
48993;SDS011;34804;49.214;12.276;2023-03-19T06:18:19;16.85;;;9.70;;
48993;SDS011;34804;49.214;12.276;2023-03-19T06:20:46;18.73;;;10.02;;
48993;SDS011;34804;49.214;12.276;2023-03-19T06:23:13;19.73;;;10.68;;
48993;SDS011;34804;49.214;12.276;2023-03-19T06:25:41;16.25;;;9.40;;
48993;SDS011;34804;49.214;12.276;2023-03-19T06:28:08;16.48;;;9.48;;
48993;SDS011;34804;49.214;12.276;2023-03-19T06:30:35;17.35;;;10.13;;
48993;SDS011;34804;49.214;12.276;2023-03-19T06:33:02;17.42;;;10.90;;
48993;SDS011;34804;49.214;12.276;2023-03-19T06:35:29;18.40;;;10.98;;
48993;SDS011;34804;49.214;12.276;2023-03-19T06:37:56;18.05;;;10.82;;
48993;SDS011;34804;49.214;12.276;2023-03-19T06:40:22;18.23;;;11.77;;
48993;SDS011;34804;49.214;12.276;2023-03-19T06:42:49;19.73;;;12.07;;
48993;SDS011;34804;49.214;12.276;2023-03-19T06:45:17;20.20;;;11.35;;
48993;SDS011;34804;49.214;12.276;2023-03-19T06:47:45;18.05;;;11.65;;
48993;SDS011;34804;49.214;12.276;2023-03-19T06:50:13;19.40;;;12.20;;
48993;SDS011;34804;49.214;12.276;2023-03-19T06:52:41;21.33;;;12.82;;
48993;SDS011;34804;49.214;12.276;2023-03-19T06:55:08;21.27;;;12.30;;
48993;SDS011;34804;49.214;12.276;2023-03-19T06:57:37;18.60;;;12.07;;
48993;SDS011;34804;49.214;12.276;2023-03-19T07:00:04;20.55;;;12.00;;
48993;SDS011;34804;49.214;12.276;2023-03-19T07:02:32;19.75;;;12.13;;
48993;SDS011;34804;49.214;12.276;2023-03-19T07:04:59;20.10;;;11.90;;
48993;SDS011;34804;49.214;12.276;2023-03-19T07:07:26;18.95;;;11.82;;
48993;SDS011;34804;49.214;12.276;2023-03-19T07:09:52;20.75;;;12.80;;
48993;SDS011;34804;49.214;12.276;2023-03-19T07:12:19;21.25;;;13.05;;
48993;SDS011;34804;49.214;12.276;2023-03-19T07:14:46;20.15;;;12.38;;
48993;SDS011;34804;49.214;12.276;2023-03-19T07:17:13;18.75;;;11.82;;
48993;SDS011;34804;49.214;12.276;2023-03-19T07:19:40;18.45;;;12.45;;
48993;SDS011;34804;49.214;12.276;2023-03-19T07:22:07;20.25;;;13.43;;
48993;SDS011;34804;49.214;12.276;2023-03-19T07:24:34;16.20;;;11.55;;
48993;SDS011;34804;49.214;12.276;2023-03-19T07:27:01;16.77;;;10.75;;
48993;SDS011;34804;49.214;12.276;2023-03-19T07:29:28;16.45;;;11.20;;
48993;SDS011;34804;49.214;12.276;2023-03-19T07:31:55;18.15;;;11.98;;
48993;SDS011;34804;49.214;12.276;2023-03-19T07:34:22;19.75;;;11.60;;
48993;SDS011;34804;49.214;12.276;2023-03-19T07:36:49;17.98;;;11.85;;
48993;SDS011;34804;49.214;12.276;2023-03-19T07:39:16;20.35;;;11.07;;
48993;SDS011;34804;49.214;12.276;2023-03-19T07:41:44;19.95;;;11.70;;
48993;SDS011;34804;49.214;12.276;2023-03-19T07:44:13;18.15;;;10.88;;
48993;SDS011;34804;49.214;12.276;2023-03-19T07:46:41;17.00;;;11.65;;
48993;SDS011;34804;49.214;12.276;2023-03-19T07:49:08;18.48;;;10.90;;
48993;SDS011;34804;49.214;12.276;2023-03-19T07:51:35;16.83;;;10.50;;
48993;SDS011;34804;49.214;12.276;2023-03-19T07:54:02;19.30;;;10.75;;
48993;SDS011;34804;49.214;12.276;2023-03-19T07:56:29;17.20;;;10.32;;
48993;SDS011;34804;49.214;12.276;2023-03-19T07:58:56;16.55;;;10.93;;
48993;SDS011;34804;49.214;12.276;2023-03-19T08:01:23;16.15;;;10.27;;
48993;SDS011;34804;49.214;12.276;2023-03-19T08:03:51;16.92;;;10.98;;
48993;SDS011;34804;49.214;12.276;2023-03-19T08:06:18;17.08;;;10.90;;
48993;SDS011;34804;49.214;12.276;2023-03-19T08:08:46;21.33;;;11.25;;
48993;SDS011;34804;49.214;12.276;2023-03-19T08:11:13;20.85;;;13.07;;
48993;SDS011;34804;49.214;12.276;2023-03-19T08:13:41;22.05;;;13.32;;
48993;SDS011;34804;49.214;12.276;2023-03-19T08:16:08;18.23;;;11.90;;
48993;SDS011;34804;49.214;12.276;2023-03-19T08:18:35;18.80;;;10.88;;
48993;SDS011;34804;49.214;12.276;2023-03-19T08:21:02;20.23;;;10.68;;
48993;SDS011;34804;49.214;12.276;2023-03-19T08:23:30;17.25;;;10.93;;
48993;SDS011;34804;49.214;12.276;2023-03-19T08:25:57;18.15;;;11.10;;
48993;SDS011;34804;49.214;12.276;2023-03-19T08:28:23;19.58;;;11.50;;
48993;SDS011;34804;49.214;12.276;2023-03-19T08:30:50;16.20;;;10.60;;
48993;SDS011;34804;49.214;12.276;2023-03-19T08:33:18;19.45;;;11.13;;
48993;SDS011;34804;49.214;12.276;2023-03-19T08:35:45;20.20;;;10.98;;
48993;SDS011;34804;49.214;12.276;2023-03-19T08:38:12;17.27;;;10.82;;
48993;SDS011;34804;49.214;12.276;2023-03-19T08:40:39;19.23;;;11.50;;
48993;SDS011;34804;49.214;12.276;2023-03-19T08:43:06;19.13;;;10.63;;
48993;SDS011;34804;49.214;12.276;2023-03-19T08:45:33;18.63;;;11.25;;
48993;SDS011;34804;49.214;12.276;2023-03-19T08:48:00;16.35;;;11.07;;
48993;SDS011;34804;49.214;12.276;2023-03-19T08:50:26;18.15;;;11.30;;
48993;SDS011;34804;49.214;12.276;2023-03-19T08:52:53;15.98;;;10.48;;
48993;SDS011;34804;49.214;12.276;2023-03-19T08:55:22;19.52;;;11.40;;
48993;SDS011;34804;49.214;12.276;2023-03-19T08:57:49;18.10;;;11.68;;
48993;SDS011;34804;49.214;12.276;2023-03-19T09:00:16;16.05;;;10.65;;
48993;SDS011;34804;49.214;12.276;2023-03-19T09:02:43;20.17;;;11.88;;
48993;SDS011;34804;49.214;12.276;2023-03-19T09:05:09;18.55;;;11.10;;
48993;SDS011;34804;49.214;12.276;2023-03-19T09:07:36;23.50;;;11.45;;
48993;SDS011;34804;49.214;12.276;2023-03-19T09:10:03;21.83;;;12.13;;
48993;SDS011;34804;49.214;12.276;2023-03-19T09:12:31;25.25;;;13.55;;
48993;SDS011;34804;49.214;12.276;2023-03-19T09:14:58;21.25;;;12.68;;
48993;SDS011;34804;49.214;12.276;2023-03-19T09:17:24;22.13;;;12.52;;
48993;SDS011;34804;49.214;12.276;2023-03-19T09:19:51;24.75;;;13.75;;
48993;SDS011;34804;49.214;12.276;2023-03-19T09:22:18;26.63;;;13.93;;
48993;SDS011;34804;49.214;12.276;2023-03-19T09:24:45;22.55;;;12.13;;
48993;SDS011;34804;49.214;12.276;2023-03-19T09:27:12;18.67;;;12.52;;
48993;SDS011;34804;49.214;12.276;2023-03-19T09:29:39;24.70;;;13.35;;
48993;SDS011;34804;49.214;12.276;2023-03-19T09:32:07;26.20;;;13.52;;
48993;SDS011;34804;49.214;12.276;2023-03-19T09:34:34;23.80;;;13.63;;
48993;SDS011;34804;49.214;12.276;2023-03-19T09:37:03;27.95;;;13.88;;
48993;SDS011;34804;49.214;12.276;2023-03-19T09:39:30;26.13;;;14.80;;
48993;SDS011;34804;49.214;12.276;2023-03-19T09:44:43;22.92;;;13.73;;
48993;SDS011;34804;49.214;12.276;2023-03-19T09:47:23;22.38;;;13.07;;
48993;SDS011;34804;49.214;12.276;2023-03-19T09:49:54;18.63;;;11.68;;
48993;SDS011;34804;49.214;12.276;2023-03-19T09:57:44;21.83;;;11.80;;
48993;SDS011;34804;49.214;12.276;2023-03-19T10:00:17;19.42;;;11.73;;
48993;SDS011;34804;49.214;12.276;2023-03-19T10:02:50;17.70;;;11.80;;
48993;SDS011;34804;49.214;12.276;2023-03-19T10:17:00;17.40;;;11.07;;
48993;SDS011;34804;49.214;12.276;2023-03-19T10:19:36;17.58;;;10.48;;
48993;SDS011;34804;49.214;12.276;2023-03-19T10:22:22;20.23;;;9.63;;
48993;SDS011;34804;49.214;12.276;2023-03-19T10:24:55;17.10;;;9.38;;
48993;SDS011;34804;49.214;12.276;2023-03-19T10:27:25;16.10;;;10.25;;
48993;SDS011;34804;49.214;12.276;2023-03-19T10:29:54;16.67;;;9.93;;
48993;SDS011;34804;49.214;12.276;2023-03-19T10:35:07;14.70;;;10.07;;
48993;SDS011;34804;49.214;12.276;2023-03-19T10:37:43;14.05;;;8.57;;
48993;SDS011;34804;49.214;12.276;2023-03-19T10:40:13;14.55;;;9.30;;
48993;SDS011;34804;49.214;12.276;2023-03-19T10:45:23;15.38;;;10.32;;
48993;SDS011;34804;49.214;12.276;2023-03-19T10:47:50;19.80;;;10.98;;
48993;SDS011;34804;49.214;12.276;2023-03-19T10:50:19;14.32;;;8.65;;
48993;SDS011;34804;49.214;12.276;2023-03-19T10:55:43;18.02;;;8.55;;
48993;SDS011;34804;49.214;12.276;2023-03-19T10:58:17;10.80;;;6.80;;
48993;SDS011;34804;49.214;12.276;2023-03-19T11:00:46;12.75;;;6.15;;
48993;SDS011;34804;49.214;12.276;2023-03-19T11:03:31;14.65;;;7.05;;
48993;SDS011;34804;49.214;12.276;2023-03-19T11:06:05;12.93;;;6.78;;
48993;SDS011;34804;49.214;12.276;2023-03-19T11:08:42;11.30;;;6.15;;
48993;SDS011;34804;49.214;12.276;2023-03-19T11:11:25;16.52;;;6.93;;
48993;SDS011;34804;49.214;12.276;2023-03-19T11:14:19;15.52;;;8.23;;
48993;SDS011;34804;49.214;12.276;2023-03-19T11:17:05;11.02;;;6.78;;
48993;SDS011;34804;49.214;12.276;2023-03-19T11:20:28;15.88;;;7.93;;
48993;SDS011;34804;49.214;12.276;2023-03-19T11:23:16;15.95;;;8.00;;
48993;SDS011;34804;49.214;12.276;2023-03-19T11:25:51;13.07;;;7.53;;
48993;SDS011;34804;49.214;12.276;2023-03-19T11:28:20;11.27;;;7.25;;
48993;SDS011;34804;49.214;12.276;2023-03-19T11:31:00;12.93;;;7.78;;
48993;SDS011;34804;49.214;12.276;2023-03-19T11:33:54;16.70;;;8.27;;
48993;SDS011;34804;49.214;12.276;2023-03-19T11:47:48;12.70;;;6.32;;
48993;SDS011;34804;49.214;12.276;2023-03-19T11:50:25;11.55;;;5.80;;
48993;SDS011;34804;49.214;12.276;2023-03-19T12:07:38;11.45;;;5.15;;
48993;SDS011;34804;49.214;12.276;2023-03-19T12:13:22;8.18;;;5.40;;
48993;SDS011;34804;49.214;12.276;2023-03-19T12:27:27;8.55;;;4.75;;
48993;SDS011;34804;49.214;12.276;2023-03-19T12:30:23;7.28;;;4.47;;
48993;SDS011;34804;49.214;12.276;2023-03-19T12:33:24;7.40;;;4.22;;
48993;SDS011;34804;49.214;12.276;2023-03-19T12:36:04;10.65;;;4.97;;
48993;SDS011;34804;49.214;12.276;2023-03-19T12:38:36;8.27;;;4.15;;
48993;SDS011;34804;49.214;12.276;2023-03-19T12:41:13;9.43;;;5.30;;
48993;SDS011;34804;49.214;12.276;2023-03-19T12:46:35;8.20;;;4.55;;
48993;SDS011;34804;49.214;12.276;2023-03-19T12:49:05;7.72;;;3.90;;
48993;SDS011;34804;49.214;12.276;2023-03-19T12:51:38;6.90;;;3.28;;
48993;SDS011;34804;49.214;12.276;2023-03-19T12:54:17;7.05;;;3.50;;
48993;SDS011;34804;49.214;12.276;2023-03-19T12:59:36;6.43;;;2.15;;
48993;SDS011;34804;49.214;12.276;2023-03-19T13:05:00;4.72;;;2.45;;
48993;SDS011;34804;49.214;12.276;2023-03-19T13:07:58;5.13;;;2.28;;
48993;SDS011;34804;49.214;12.276;2023-03-19T13:10:37;5.18;;;2.30;;
48993;SDS011;34804;49.214;12.276;2023-03-19T13:13:11;5.95;;;2.55;;
48993;SDS011;34804;49.214;12.276;2023-03-19T13:15:46;4.97;;;2.45;;
48993;SDS011;34804;49.214;12.276;2023-03-19T13:23:44;4.55;;;2.05;;
48993;SDS011;34804;49.214;12.276;2023-03-19T13:26:15;6.05;;;2.05;;
48993;SDS011;34804;49.214;12.276;2023-03-19T13:28:54;5.03;;;1.92;;
48993;SDS011;34804;49.214;12.276;2023-03-19T13:31:24;5.57;;;2.55;;
48993;SDS011;34804;49.214;12.276;2023-03-19T13:34:00;4.35;;;1.60;;
48993;SDS011;34804;49.214;12.276;2023-03-19T13:36:39;5.68;;;1.80;;
48993;SDS011;34804;49.214;12.276;2023-03-19T13:39:13;4.25;;;1.90;;
48993;SDS011;34804;49.214;12.276;2023-03-19T13:46:49;5.78;;;2.35;;
48993;SDS011;34804;49.214;12.276;2023-03-19T13:49:33;4.13;;;1.83;;
48993;SDS011;34804;49.214;12.276;2023-03-19T13:54:38;5.97;;;2.33;;
48993;SDS011;34804;49.214;12.276;2023-03-19T13:59:45;5.13;;;2.03;;
48993;SDS011;34804;49.214;12.276;2023-03-19T14:07:35;6.32;;;1.98;;
48993;SDS011;34804;49.214;12.276;2023-03-19T14:10:06;7.50;;;2.00;;
48993;SDS011;34804;49.214;12.276;2023-03-19T14:12:39;6.47;;;1.92;;
48993;SDS011;34804;49.214;12.276;2023-03-19T14:17:35;5.63;;;1.77;;
48993;SDS011;34804;49.214;12.276;2023-03-19T14:22:39;5.10;;;2.15;;
48993;SDS011;34804;49.214;12.276;2023-03-19T14:25:19;5.60;;;2.38;;
48993;SDS011;34804;49.214;12.276;2023-03-19T14:27:48;6.70;;;2.83;;
48993;SDS011;34804;49.214;12.276;2023-03-19T14:30:25;5.45;;;2.17;;
48993;SDS011;34804;49.214;12.276;2023-03-19T14:33:04;4.10;;;2.00;;
48993;SDS011;34804;49.214;12.276;2023-03-19T14:35:39;5.35;;;2.22;;
48993;SDS011;34804;49.214;12.276;2023-03-19T14:38:31;4.93;;;2.10;;
48993;SDS011;34804;49.214;12.276;2023-03-19T14:41:04;3.85;;;1.95;;
48993;SDS011;34804;49.214;12.276;2023-03-19T14:43:57;4.40;;;1.90;;
48993;SDS011;34804;49.214;12.276;2023-03-19T14:52:27;5.60;;;2.05;;
48993;SDS011;34804;49.214;12.276;2023-03-19T14:54:58;4.18;;;1.88;;
48993;SDS011;34804;49.214;12.276;2023-03-19T14:57:33;4.13;;;1.88;;
48993;SDS011;34804;49.214;12.276;2023-03-19T15:00:02;5.65;;;2.88;;
48993;SDS011;34804;49.214;12.276;2023-03-19T15:02:34;4.63;;;2.00;;
48993;SDS011;34804;49.214;12.276;2023-03-19T15:05:26;3.67;;;1.70;;
48993;SDS011;34804;49.214;12.276;2023-03-19T15:07:54;4.85;;;1.92;;
48993;SDS011;34804;49.214;12.276;2023-03-19T15:10:26;4.38;;;1.85;;
48993;SDS011;34804;49.214;12.276;2023-03-19T15:13:03;4.53;;;1.63;;
48993;SDS011;34804;49.214;12.276;2023-03-19T15:18:38;4.93;;;1.92;;
48993;SDS011;34804;49.214;12.276;2023-03-19T15:21:05;5.30;;;2.08;;
48993;SDS011;34804;49.214;12.276;2023-03-19T15:23:32;5.82;;;3.15;;
48993;SDS011;34804;49.214;12.276;2023-03-19T15:26:10;5.57;;;1.92;;
48993;SDS011;34804;49.214;12.276;2023-03-19T15:28:47;4.93;;;2.13;;
48993;SDS011;34804;49.214;12.276;2023-03-19T15:31:22;5.03;;;2.17;;
48993;SDS011;34804;49.214;12.276;2023-03-19T15:34:18;4.85;;;2.00;;
48993;SDS011;34804;49.214;12.276;2023-03-19T15:39:42;6.75;;;2.13;;
48993;SDS011;34804;49.214;12.276;2023-03-19T15:42:14;6.55;;;1.75;;
48993;SDS011;34804;49.214;12.276;2023-03-19T15:44:44;8.10;;;1.92;;
48993;SDS011;34804;49.214;12.276;2023-03-19T15:47:21;4.95;;;2.10;;
48993;SDS011;34804;49.214;12.276;2023-03-19T15:49:57;5.68;;;1.80;;
48993;SDS011;34804;49.214;12.276;2023-03-19T15:52:30;4.32;;;2.00;;
48993;SDS011;34804;49.214;12.276;2023-03-19T15:55:02;4.35;;;2.00;;
48993;SDS011;34804;49.214;12.276;2023-03-19T15:57:29;4.70;;;2.30;;
48993;SDS011;34804;49.214;12.276;2023-03-19T15:59:58;5.53;;;1.92;;
48993;SDS011;34804;49.214;12.276;2023-03-19T16:02:32;4.55;;;2.00;;
48993;SDS011;34804;49.214;12.276;2023-03-19T16:05:02;4.68;;;2.25;;
48993;SDS011;34804;49.214;12.276;2023-03-19T16:07:49;4.75;;;2.30;;
48993;SDS011;34804;49.214;12.276;2023-03-19T16:13:27;5.67;;;2.77;;
48993;SDS011;34804;49.214;12.276;2023-03-19T16:16:10;7.82;;;2.83;;
48993;SDS011;34804;49.214;12.276;2023-03-19T16:18:50;7.43;;;2.30;;
48993;SDS011;34804;49.214;12.276;2023-03-19T16:21:19;5.22;;;2.47;;
48993;SDS011;34804;49.214;12.276;2023-03-19T16:24:18;6.47;;;2.40;;
48993;SDS011;34804;49.214;12.276;2023-03-19T16:26:50;6.07;;;2.30;;
48993;SDS011;34804;49.214;12.276;2023-03-19T16:29:22;5.75;;;2.55;;
48993;SDS011;34804;49.214;12.276;2023-03-19T16:31:59;6.78;;;2.75;;
48993;SDS011;34804;49.214;12.276;2023-03-19T16:34:44;7.05;;;3.00;;
48993;SDS011;34804;49.214;12.276;2023-03-19T16:37:23;8.18;;;2.90;;
48993;SDS011;34804;49.214;12.276;2023-03-19T16:39:55;5.00;;;2.42;;
48993;SDS011;34804;49.214;12.276;2023-03-19T16:42:36;5.18;;;2.30;;
48993;SDS011;34804;49.214;12.276;2023-03-19T16:47:46;7.13;;;2.80;;